createdAt,value
2024-05-09T00:00:06.791Z,1.12
2024-05-09T00:00:39.801Z,.64
2024-05-09T00:01:07.962Z,.64
2024-05-09T00:01:40.703Z,.32
2024-05-09T00:02:11.988Z,.32
2024-05-09T00:02:44.911Z,.32
2024-05-09T00:03:15.835Z,.32
2024-05-09T00:03:48.677Z,.32
2024-05-09T00:04:19.931Z,.32
2024-05-09T00:04:53.645Z,.32
2024-05-09T00:05:24.347Z,.32
2024-05-09T00:05:56.834Z,.32
2024-05-09T00:06:27.927Z,.32
2024-05-09T00:07:00.519Z,.32
2024-05-09T00:07:31.910Z,.32
2024-05-09T00:08:04.959Z,.32
2024-05-09T00:08:36.032Z,.32
2024-05-09T00:09:08.840Z,.32
2024-05-09T00:09:39.974Z,.32
2024-05-09T00:10:22.271Z,.32
2024-05-09T00:10:43.939Z,.32
2024-05-09T00:11:16.879Z,.32
2024-05-09T00:11:48.231Z,.32
2024-05-09T00:12:21.266Z,.32
2024-05-09T00:12:51.771Z,.32
2024-05-09T00:13:24.660Z,.32
2024-05-09T00:13:56.136Z,.32
2024-05-09T00:14:28.788Z,0
2024-05-09T00:14:59.909Z,0
2024-05-09T00:15:34.931Z,0
2024-05-09T00:16:04.005Z,0
2024-05-09T00:16:37.613Z,0
2024-05-09T00:17:07.992Z,0
2024-05-09T00:17:41.101Z,0
2024-05-09T00:18:11.953Z,0
2024-05-09T00:18:44.773Z,0
2024-05-09T00:19:16.190Z,0
2024-05-09T00:19:48.836Z,0
2024-05-09T00:20:27.855Z,0
2024-05-09T00:20:52.792Z,0
2024-05-09T00:21:23.826Z,0
2024-05-09T00:21:56.572Z,0
2024-05-09T00:22:27.920Z,0
2024-05-09T00:23:00.886Z,0
2024-05-09T00:23:32.015Z,0
2024-05-09T00:24:04.527Z,0
2024-05-09T00:24:36.015Z,0
2024-05-09T00:25:08.909Z,0
2024-05-09T00:25:39.995Z,0
2024-05-09T00:26:12.524Z,.32
2024-05-09T00:26:44.039Z,.64
2024-05-09T00:27:16.693Z,1.12
2024-05-09T00:27:47.884Z,1.12
2024-05-09T00:28:20.694Z,1.12
2024-05-09T00:28:51.848Z,1.12
2024-05-09T00:29:24.813Z,1.12
2024-05-09T00:29:55.963Z,1.44
2024-05-09T00:30:34.223Z,1.44
2024-05-09T00:31:00.008Z,1.44
2024-05-09T00:31:16.061Z,1.44
2024-05-09T00:31:47.931Z,1.44
2024-05-09T00:32:20.021Z,1.44
2024-05-09T00:32:52.265Z,1.44
2024-05-09T00:33:24.084Z,1.44
2024-05-09T00:33:56.798Z,1.44
2024-05-09T00:34:27.991Z,1.44
2024-05-09T00:35:01.320Z,1.44
2024-05-09T00:35:32.033Z,1.44
2024-05-09T00:36:04.590Z,1.44
2024-05-09T00:36:35.953Z,1.44
2024-05-09T00:37:08.549Z,1.44
2024-05-09T00:37:39.859Z,1.44
2024-05-09T00:38:12.726Z,1.44
2024-05-09T00:38:44.010Z,1.44
2024-05-09T00:39:16.611Z,1.77
2024-05-09T00:39:47.933Z,1.77
2024-05-09T00:40:30.813Z,1.77
2024-05-09T00:40:51.899Z,1.77
2024-05-09T00:41:24.615Z,1.77
2024-05-09T00:41:55.939Z,1.77
2024-05-09T00:42:28.844Z,1.77
2024-05-09T00:42:59.818Z,1.77
2024-05-09T00:43:32.656Z,1.77
2024-05-09T00:44:03.980Z,1.77
2024-05-09T00:44:36.867Z,1.77
2024-05-09T00:45:09.398Z,1.77
2024-05-09T00:45:40.949Z,1.77
2024-05-09T00:46:12.006Z,1.77
2024-05-09T00:46:44.625Z,1.77
2024-05-09T00:47:16.042Z,1.77
2024-05-09T00:47:48.963Z,1.77
2024-05-09T00:48:21.631Z,1.77
2024-05-09T00:48:52.883Z,1.44
2024-05-09T00:49:24.060Z,1.44
2024-05-09T00:49:56.692Z,1.44
2024-05-09T00:50:35.601Z,1.12
2024-05-09T00:51:00.808Z,1.12
2024-05-09T00:51:32.033Z,1.12
2024-05-09T00:52:04.487Z,1.12
2024-05-09T00:52:35.907Z,1.12
2024-05-09T00:53:08.865Z,1.12
2024-05-09T00:53:40.083Z,1.12
2024-05-09T00:54:12.863Z,1.12
2024-05-09T00:54:43.886Z,.64
2024-05-09T00:55:16.903Z,.64
2024-05-09T00:55:47.952Z,.64
2024-05-09T00:56:20.714Z,.64
2024-05-09T00:56:51.916Z,.64
2024-05-09T00:57:24.769Z,.64
2024-05-09T00:57:55.927Z,.32
2024-05-09T00:58:28.584Z,.32
2024-05-09T00:59:00.055Z,0
2024-05-09T00:59:32.700Z,0
2024-05-09T01:00:07.830Z,0
2024-05-09T01:00:39.840Z,0
2024-05-09T01:01:07.930Z,0
2024-05-09T01:01:40.846Z,0
2024-05-09T01:02:12.037Z,0
2024-05-09T01:02:44.795Z,0
2024-05-09T01:03:16.155Z,0
2024-05-09T01:03:51.029Z,0
2024-05-09T01:04:19.961Z,0
2024-05-09T01:04:53.844Z,0
2024-05-09T01:05:24.334Z,0
2024-05-09T01:05:56.922Z,0
2024-05-09T01:06:27.718Z,0
2024-05-09T01:07:00.735Z,0
2024-05-09T01:07:31.947Z,0
2024-05-09T01:08:04.698Z,0
2024-05-09T01:08:36.019Z,0
2024-05-09T01:09:08.692Z,0
2024-05-09T01:09:39.933Z,0
2024-05-09T01:10:17.437Z,0
2024-05-09T01:10:45.316Z,0
2024-05-09T01:11:16.785Z,0
2024-05-09T01:11:47.958Z,0
2024-05-09T01:12:20.825Z,0
2024-05-09T01:12:51.882Z,0
2024-05-09T01:13:24.880Z,0
2024-05-09T01:13:55.940Z,0
2024-05-09T01:14:28.781Z,0
2024-05-09T01:14:59.943Z,0
2024-05-09T01:15:34.247Z,0
2024-05-09T01:16:03.889Z,0
2024-05-09T01:16:36.803Z,0
2024-05-09T01:17:08.116Z,0
2024-05-09T01:17:41.036Z,0
2024-05-09T01:18:13.211Z,0
2024-05-09T01:18:44.856Z,0
2024-05-09T01:19:16.026Z,0
2024-05-09T01:19:48.723Z,0
2024-05-09T01:20:31.541Z,0
2024-05-09T01:20:52.616Z,0
2024-05-09T01:21:23.908Z,0
2024-05-09T01:21:56.685Z,0
2024-05-09T01:22:27.921Z,0
2024-05-09T01:23:00.682Z,0
2024-05-09T01:23:32.205Z,0
2024-05-09T01:24:04.896Z,0
2024-05-09T01:24:35.786Z,0
2024-05-09T01:25:08.906Z,0
2024-05-09T01:25:39.984Z,0
2024-05-09T01:26:13.161Z,0
2024-05-09T01:26:43.824Z,0
2024-05-09T01:27:16.663Z,0
2024-05-09T01:27:47.940Z,0
2024-05-09T01:28:20.577Z,0
2024-05-09T01:28:51.945Z,0
2024-05-09T01:29:24.714Z,0
2024-05-09T01:29:56.035Z,0
2024-05-09T01:30:34.912Z,0
2024-05-09T01:31:00.106Z,0
2024-05-09T01:31:32.976Z,0
2024-05-09T01:32:03.983Z,0
2024-05-09T01:32:38.007Z,0
2024-05-09T01:33:09.798Z,0
2024-05-09T01:33:40.724Z,0
2024-05-09T01:34:11.902Z,0
2024-05-09T01:34:44.735Z,0
2024-05-09T01:35:16.430Z,0
2024-05-09T01:35:48.472Z,0
2024-05-09T01:36:20.280Z,0
2024-05-09T01:36:52.675Z,0
2024-05-09T01:37:23.935Z,0
2024-05-09T01:37:56.752Z,0
2024-05-09T01:38:27.920Z,0
2024-05-09T01:39:00.789Z,0
2024-05-09T01:39:31.875Z,0
2024-05-09T01:40:07.455Z,0
2024-05-09T01:40:39.428Z,0
2024-05-09T01:41:08.535Z,0
2024-05-09T01:41:39.884Z,0
2024-05-09T01:42:12.708Z,0
2024-05-09T01:42:43.969Z,0
2024-05-09T01:43:16.538Z,0
2024-05-09T01:43:47.946Z,0
2024-05-09T01:44:20.727Z,0
2024-05-09T01:44:51.959Z,0
2024-05-09T01:45:25.940Z,0
2024-05-09T01:45:56.094Z,0
2024-05-09T01:46:28.616Z,0
2024-05-09T01:46:59.893Z,0
2024-05-09T01:47:32.669Z,0
2024-05-09T01:48:04.238Z,0
2024-05-09T01:48:36.579Z,0
2024-05-09T01:49:08.241Z,0
2024-05-09T01:49:40.656Z,0
2024-05-09T01:50:16.343Z,0
2024-05-09T01:50:44.606Z,0
2024-05-09T01:51:15.914Z,0
2024-05-09T01:51:48.694Z,0
2024-05-09T01:52:19.773Z,0
2024-05-09T01:52:52.727Z,0
2024-05-09T01:53:24.025Z,0
2024-05-09T01:53:56.683Z,0
2024-05-09T01:54:27.818Z,0
2024-05-09T01:54:44.015Z,0
2024-05-09T01:55:16.194Z,0
2024-05-09T01:55:47.974Z,0
2024-05-09T01:56:20.044Z,0
2024-05-09T01:56:51.794Z,0
2024-05-09T01:57:24.821Z,0
2024-05-09T01:57:56.006Z,0
2024-05-09T01:58:28.738Z,0
2024-05-09T01:58:59.815Z,0
2024-05-09T01:59:32.971Z,0
2024-05-09T02:00:07.660Z,0
2024-05-09T02:00:41.037Z,0
2024-05-09T02:01:07.875Z,0
2024-05-09T02:01:56.007Z,0
2024-05-09T02:02:12.122Z,0
2024-05-09T02:02:44.970Z,0
2024-05-09T02:03:17.642Z,0
2024-05-09T02:03:49.087Z,0
2024-05-09T02:04:20.176Z,0
2024-05-09T02:04:52.652Z,0
2024-05-09T02:05:24.408Z,0
2024-05-09T02:05:56.834Z,0
2024-05-09T02:06:27.822Z,0
2024-05-09T02:07:00.833Z,0
2024-05-09T02:07:32.006Z,0
2024-05-09T02:08:04.800Z,0
2024-05-09T02:08:36.023Z,0
2024-05-09T02:09:08.663Z,0
2024-05-09T02:09:40.001Z,0
2024-05-09T02:10:20.165Z,0
2024-05-09T02:10:44.322Z,0
2024-05-09T02:11:16.720Z,0
2024-05-09T02:11:47.948Z,0
2024-05-09T02:12:20.870Z,0
2024-05-09T02:12:51.927Z,0
2024-05-09T02:13:24.684Z,0
2024-05-09T02:13:56.012Z,0
2024-05-09T02:14:28.642Z,0
2024-05-09T02:15:00.189Z,0
2024-05-09T02:15:34.164Z,0
2024-05-09T02:16:03.972Z,0
2024-05-09T02:16:36.847Z,0
2024-05-09T02:17:08.204Z,0
2024-05-09T02:17:40.983Z,0
2024-05-09T02:18:12.610Z,0
2024-05-09T02:18:44.783Z,0
2024-05-09T02:19:15.954Z,0
2024-05-09T02:19:48.701Z,0
2024-05-09T02:20:30.112Z,0
2024-05-09T02:20:52.619Z,0
2024-05-09T02:21:24.025Z,0
2024-05-09T02:21:56.668Z,0
2024-05-09T02:22:27.803Z,0
2024-05-09T02:23:00.817Z,0
2024-05-09T02:23:32.065Z,0
2024-05-09T02:24:04.634Z,0
2024-05-09T02:24:35.833Z,0
2024-05-09T02:25:08.904Z,0
2024-05-09T02:25:40.111Z,0
2024-05-09T02:26:12.393Z,0
2024-05-09T02:26:43.962Z,0
2024-05-09T02:27:16.760Z,0
2024-05-09T02:27:48.030Z,0
2024-05-09T02:28:20.645Z,0
2024-05-09T02:28:51.946Z,0
2024-05-09T02:29:24.691Z,0
2024-05-09T02:29:55.788Z,0
2024-05-09T02:30:38.257Z,0
2024-05-09T02:31:00.165Z,0
2024-05-09T02:31:32.752Z,0
2024-05-09T02:32:03.916Z,0
2024-05-09T02:32:37.100Z,0
2024-05-09T02:33:08.898Z,0
2024-05-09T02:33:40.770Z,0
2024-05-09T02:34:12.073Z,0
2024-05-09T02:34:44.805Z,0
2024-05-09T02:35:16.260Z,0
2024-05-09T02:35:48.391Z,0
2024-05-09T02:36:19.917Z,0
2024-05-09T02:36:52.651Z,0
2024-05-09T02:37:23.871Z,0
2024-05-09T02:37:56.805Z,0
2024-05-09T02:38:28.001Z,0
2024-05-09T02:39:00.999Z,0
2024-05-09T02:39:31.950Z,0
2024-05-09T02:40:07.145Z,0
2024-05-09T02:40:38.478Z,0
2024-05-09T02:41:08.704Z,0
2024-05-09T02:41:39.964Z,0
2024-05-09T02:42:12.708Z,0
2024-05-09T02:42:44.034Z,0
2024-05-09T02:43:16.755Z,0
2024-05-09T02:43:48.060Z,0
2024-05-09T02:44:20.811Z,0
2024-05-09T02:44:51.960Z,0
2024-05-09T02:45:26.051Z,0
2024-05-09T02:45:56.155Z,0
2024-05-09T02:46:28.595Z,0
2024-05-09T02:46:59.976Z,0
2024-05-09T02:47:33.072Z,0
2024-05-09T02:48:04.365Z,0
2024-05-09T02:48:36.748Z,0
2024-05-09T02:49:08.078Z,0
2024-05-09T02:49:40.797Z,0
2024-05-09T02:50:16.205Z,0
2024-05-09T02:50:45.056Z,0
2024-05-09T02:51:15.969Z,0
2024-05-09T02:51:48.776Z,0
2024-05-09T02:52:19.952Z,0
2024-05-09T02:52:52.931Z,0
2024-05-09T02:53:24.048Z,0
2024-05-09T02:53:56.589Z,0
2024-05-09T02:54:27.884Z,0
2024-05-09T02:55:02.055Z,0
2024-05-09T02:55:32.039Z,0
2024-05-09T02:56:04.980Z,0
2024-05-09T02:56:35.963Z,0
2024-05-09T02:57:08.828Z,0
2024-05-09T02:57:39.799Z,0
2024-05-09T02:58:12.681Z,0
2024-05-09T02:58:44.018Z,0
2024-05-09T02:59:16.893Z,0
2024-05-09T02:59:47.857Z,0
2024-05-09T03:00:29.459Z,0
2024-05-09T03:00:52.191Z,0
2024-05-09T03:01:25.495Z,0
2024-05-09T03:01:55.956Z,0
2024-05-09T03:02:28.930Z,0
2024-05-09T03:03:00.212Z,0
2024-05-09T03:03:33.599Z,0
2024-05-09T03:04:04.072Z,0
2024-05-09T03:04:37.198Z,0
2024-05-09T03:05:08.307Z,0
2024-05-09T03:05:41.137Z,0
2024-05-09T03:06:11.899Z,0
2024-05-09T03:06:45.010Z,0
2024-05-09T03:07:17.252Z,0
2024-05-09T03:07:49.044Z,0
2024-05-09T03:08:20.025Z,0
2024-05-09T03:08:52.626Z,0
2024-05-09T03:09:24.064Z,0
2024-05-09T03:09:56.671Z,0
2024-05-09T03:10:29.321Z,0
2024-05-09T03:11:01.372Z,0
2024-05-09T03:11:32.189Z,0
2024-05-09T03:12:05.188Z,0
2024-05-09T03:12:39.046Z,0
2024-05-09T03:13:09.090Z,0
2024-05-09T03:13:40.045Z,0
2024-05-09T03:14:12.823Z,0
2024-05-09T03:14:43.960Z,0
2024-05-09T03:15:17.944Z,0
2024-05-09T03:15:48.100Z,0
2024-05-09T03:16:20.598Z,0
2024-05-09T03:16:51.956Z,0
2024-05-09T03:17:25.138Z,0
2024-05-09T03:17:56.189Z,0
2024-05-09T03:18:28.933Z,0
2024-05-09T03:19:00.060Z,0
2024-05-09T03:19:32.848Z,0
2024-05-09T03:20:06.906Z,0
2024-05-09T03:20:38.388Z,0
2024-05-09T03:21:08.039Z,0
2024-05-09T03:21:40.644Z,0
2024-05-09T03:22:11.950Z,0
2024-05-09T03:22:44.867Z,0
2024-05-09T03:23:15.989Z,0
2024-05-09T03:23:48.724Z,0
2024-05-09T03:24:20.028Z,0
2024-05-09T03:24:52.590Z,0
2024-05-09T03:25:24.235Z,0
2024-05-09T03:25:56.693Z,0
2024-05-09T03:26:28.034Z,0
2024-05-09T03:27:00.621Z,0
2024-05-09T03:27:31.932Z,0
2024-05-09T03:28:04.797Z,0
2024-05-09T03:28:35.971Z,0
2024-05-09T03:29:08.720Z,0
2024-05-09T03:29:39.926Z,0
2024-05-09T03:30:26.012Z,0
2024-05-09T03:30:44.149Z,0
2024-05-09T03:31:16.560Z,0
2024-05-09T03:31:48.023Z,0
2024-05-09T03:32:20.994Z,0
2024-05-09T03:32:52.039Z,0
2024-05-09T03:33:25.330Z,0
2024-05-09T03:33:56.739Z,0
2024-05-09T03:34:28.888Z,0
2024-05-09T03:35:00.024Z,0
2024-05-09T03:35:16.552Z,0
2024-05-09T03:35:48.374Z,0
2024-05-09T03:36:19.999Z,0
2024-05-09T03:36:52.005Z,0
2024-05-09T03:37:23.835Z,0
2024-05-09T03:37:56.795Z,0
2024-05-09T03:38:27.999Z,0
2024-05-09T03:39:00.864Z,0
2024-05-09T03:39:31.872Z,0
2024-05-09T03:40:09.214Z,0
2024-05-09T03:40:36.048Z,0
2024-05-09T03:41:08.987Z,0
2024-05-09T03:41:40.094Z,0
2024-05-09T03:42:12.796Z,0
2024-05-09T03:42:43.941Z,0
2024-05-09T03:43:16.851Z,0
2024-05-09T03:43:48.262Z,0
2024-05-09T03:44:20.928Z,0
2024-05-09T03:44:52.128Z,0
2024-05-09T03:45:26.477Z,0
2024-05-09T03:45:56.331Z,0
2024-05-09T03:46:28.862Z,0
2024-05-09T03:47:00.198Z,0
2024-05-09T03:47:33.104Z,0
2024-05-09T03:48:04.449Z,0
2024-05-09T03:48:37.025Z,0
2024-05-09T03:49:08.406Z,0
2024-05-09T03:49:41.139Z,0
2024-05-09T03:50:18.498Z,0
2024-05-09T03:50:44.955Z,0
2024-05-09T03:51:16.302Z,0
2024-05-09T03:51:48.835Z,0
2024-05-09T03:52:20.169Z,0
2024-05-09T03:52:52.891Z,0
2024-05-09T03:53:24.319Z,0
2024-05-09T03:53:56.893Z,0
2024-05-09T03:54:28.135Z,0
2024-05-09T03:55:01.422Z,0
2024-05-09T03:55:32.237Z,0
2024-05-09T03:56:05.049Z,0
2024-05-09T03:56:36.270Z,0
2024-05-09T03:57:09.269Z,0
2024-05-09T03:57:40.112Z,0
2024-05-09T03:58:12.992Z,0
2024-05-09T03:58:44.240Z,0
2024-05-09T03:59:16.988Z,0
2024-05-09T03:59:48.142Z,0
2024-05-09T04:00:31.114Z,0
2024-05-09T04:00:52.408Z,0
2024-05-09T04:01:24.906Z,0
2024-05-09T04:01:56.443Z,0
2024-05-09T04:02:29.181Z,0
2024-05-09T04:03:00.365Z,0
2024-05-09T04:03:33.060Z,0
2024-05-09T04:04:04.321Z,0
2024-05-09T04:04:37.005Z,0
2024-05-09T04:05:08.441Z,0
2024-05-09T04:05:42.345Z,0
2024-05-09T04:06:12.520Z,0
2024-05-09T04:06:44.945Z,0
2024-05-09T04:07:16.147Z,0
2024-05-09T04:07:49.109Z,0
2024-05-09T04:08:20.271Z,0
2024-05-09T04:08:52.928Z,0
2024-05-09T04:09:24.227Z,0
2024-05-09T04:09:57.001Z,0
2024-05-09T04:10:33.290Z,0
2024-05-09T04:11:01.122Z,0
2024-05-09T04:11:32.545Z,0
2024-05-09T04:12:05.044Z,0
2024-05-09T04:12:36.293Z,0
2024-05-09T04:13:08.892Z,0
2024-05-09T04:13:40.290Z,0
2024-05-09T04:14:12.998Z,0
2024-05-09T04:14:44.155Z,0
2024-05-09T04:15:18.263Z,0
2024-05-09T04:15:48.203Z,0
2024-05-09T04:16:21.022Z,0
2024-05-09T04:16:52.290Z,0
2024-05-09T04:17:25.228Z,0
2024-05-09T04:17:56.666Z,0
2024-05-09T04:18:29.004Z,0
2024-05-09T04:19:00.395Z,0
2024-05-09T04:19:33.312Z,0
2024-05-09T04:20:06.537Z,0
2024-05-09T04:20:39.924Z,0
2024-05-09T04:21:08.524Z,0
2024-05-09T04:21:40.722Z,0
2024-05-09T04:22:12.229Z,0
2024-05-09T04:22:45.189Z,0
2024-05-09T04:23:16.199Z,0
2024-05-09T04:23:48.995Z,0
2024-05-09T04:24:20.334Z,0
2024-05-09T04:24:52.902Z,0
2024-05-09T04:25:24.597Z,0
2024-05-09T04:25:56.949Z,0
2024-05-09T04:26:28.263Z,0
2024-05-09T04:27:00.821Z,0
2024-05-09T04:27:32.197Z,0
2024-05-09T04:28:05.076Z,0
2024-05-09T04:28:36.279Z,0
2024-05-09T04:29:08.850Z,0
2024-05-09T04:29:40.179Z,0
2024-05-09T04:30:21.724Z,0
2024-05-09T04:30:44.274Z,0
2024-05-09T04:31:16.863Z,0
2024-05-09T04:31:48.248Z,0
2024-05-09T04:32:21.210Z,0
2024-05-09T04:32:52.367Z,0
2024-05-09T04:33:25.352Z,0
2024-05-09T04:33:56.443Z,0
2024-05-09T04:34:28.918Z,0
2024-05-09T04:35:00.252Z,0
2024-05-09T04:35:33.598Z,0
2024-05-09T04:36:04.164Z,0
2024-05-09T04:36:37.041Z,0
2024-05-09T04:37:08.394Z,0
2024-05-09T04:37:41.221Z,0
2024-05-09T04:38:12.394Z,0
2024-05-09T04:38:45.021Z,0
2024-05-09T04:39:16.243Z,0
2024-05-09T04:39:50.021Z,0
2024-05-09T04:40:28.135Z,0
2024-05-09T04:40:52.975Z,0
2024-05-09T04:41:24.329Z,0
2024-05-09T04:41:56.796Z,0
2024-05-09T04:42:28.148Z,0
2024-05-09T04:43:01.148Z,0
2024-05-09T04:43:32.423Z,0
2024-05-09T04:44:05.125Z,0
2024-05-09T04:44:36.368Z,0
2024-05-09T04:45:10.554Z,0
2024-05-09T04:45:40.428Z,0
2024-05-09T04:46:12.897Z,0
2024-05-09T04:46:44.598Z,0
2024-05-09T04:47:16.925Z,0
2024-05-09T04:47:48.523Z,0
2024-05-09T04:48:21.031Z,0
2024-05-09T04:48:52.621Z,0
2024-05-09T04:49:24.927Z,0
2024-05-09T04:49:56.322Z,0
2024-05-09T04:50:36.133Z,0
2024-05-09T04:51:00.178Z,0
2024-05-09T04:51:32.767Z,0
2024-05-09T04:52:04.271Z,0
2024-05-09T04:52:37.200Z,0
2024-05-09T04:53:10.066Z,0
2024-05-09T04:53:41.086Z,0
2024-05-09T04:54:22.234Z,0
2024-05-09T04:54:44.801Z,0
2024-05-09T04:55:16.623Z,0
2024-05-09T04:55:48.995Z,0
2024-05-09T04:56:20.342Z,0
2024-05-09T04:56:52.855Z,0
2024-05-09T04:57:24.251Z,0
2024-05-09T04:57:57.007Z,0
2024-05-09T04:58:28.121Z,0
2024-05-09T04:59:00.950Z,0
2024-05-09T04:59:32.396Z,0
2024-05-09T05:00:11.563Z,0
2024-05-09T05:00:38.257Z,0
2024-05-09T05:01:08.994Z,0
2024-05-09T05:01:40.275Z,0
2024-05-09T05:02:13.036Z,0
2024-05-09T05:02:44.292Z,0
2024-05-09T05:03:17.464Z,0
2024-05-09T05:03:48.453Z,0
2024-05-09T05:04:21.070Z,.32
2024-05-09T05:04:52.945Z,.32
2024-05-09T05:05:25.526Z,1.44
2024-05-09T05:05:56.383Z,1.44
2024-05-09T05:06:28.902Z,1.44
2024-05-09T05:07:02.753Z,1.44
2024-05-09T05:07:33.200Z,1.77
2024-05-09T05:08:04.194Z,1.77
2024-05-09T05:08:37.045Z,1.77
2024-05-09T05:09:08.202Z,1.77
2024-05-09T05:09:40.936Z,1.77
2024-05-09T05:10:17.912Z,1.77
2024-05-09T05:10:45.223Z,1.77
2024-05-09T05:11:16.371Z,1.77
2024-05-09T05:11:49.083Z,1.77
2024-05-09T05:12:20.323Z,1.77
2024-05-09T05:12:52.976Z,1.77
2024-05-09T05:13:24.807Z,1.44
2024-05-09T05:13:57.834Z,1.44
2024-05-09T05:14:28.488Z,1.44
2024-05-09T05:15:02.735Z,1.44
2024-05-09T05:15:32.419Z,1.12
2024-05-09T05:16:05.134Z,.64
2024-05-09T05:16:36.322Z,.64
2024-05-09T05:17:09.174Z,1.12
2024-05-09T05:17:40.563Z,1.12
2024-05-09T05:18:13.079Z,1.44
2024-05-09T05:18:44.388Z,1.44
2024-05-09T05:19:17.739Z,1.12
2024-05-09T05:19:48.440Z,.64
2024-05-09T05:20:27.554Z,.64
2024-05-09T05:20:52.438Z,.64
2024-05-09T05:21:25.055Z,.64
2024-05-09T05:21:56.339Z,.64
2024-05-09T05:22:28.951Z,.64
2024-05-09T05:23:00.529Z,1.12
2024-05-09T05:23:33.088Z,1.12
2024-05-09T05:24:04.364Z,1.12
2024-05-09T05:24:36.795Z,1.12
2024-05-09T05:25:08.648Z,1.12
2024-05-09T05:25:41.102Z,1.12
2024-05-09T05:26:12.394Z,1.12
2024-05-09T05:26:45.051Z,.64
2024-05-09T05:27:16.352Z,.64
2024-05-09T05:27:48.838Z,.64
2024-05-09T05:28:20.269Z,.64
2024-05-09T05:28:53.124Z,.32
2024-05-09T05:29:24.454Z,.32
2024-05-09T05:29:57.324Z,.32
2024-05-09T05:30:34.494Z,0
2024-05-09T05:31:01.571Z,0
2024-05-09T05:31:32.721Z,0
2024-05-09T05:32:05.507Z,.32
2024-05-09T05:32:36.746Z,0
2024-05-09T05:33:09.651Z,0
2024-05-09T05:33:41.247Z,0
2024-05-09T05:34:12.972Z,0
2024-05-09T05:34:44.335Z,0
2024-05-09T05:35:17.553Z,.32
2024-05-09T05:35:48.318Z,.64
2024-05-09T05:36:21.162Z,.64
2024-05-09T05:36:52.698Z,.64
2024-05-09T05:37:25.271Z,1.12
2024-05-09T05:37:56.745Z,1.12
2024-05-09T05:38:29.336Z,1.44
2024-05-09T05:39:00.804Z,1.44
2024-05-09T05:39:33.455Z,1.44
2024-05-09T05:40:05.761Z,1.77
2024-05-09T05:40:38.901Z,1.77
2024-05-09T05:41:08.737Z,1.44
2024-05-09T05:41:41.386Z,1.12
2024-05-09T05:42:12.795Z,1.44
2024-05-09T05:42:45.231Z,1.77
2024-05-09T05:43:16.809Z,1.77
2024-05-09T05:43:49.566Z,1.77
2024-05-09T05:44:20.884Z,1.77
2024-05-09T05:44:53.528Z,1.77
2024-05-09T05:45:25.741Z,1.77
2024-05-09T05:45:57.754Z,1.44
2024-05-09T05:46:28.550Z,1.44
2024-05-09T05:47:01.656Z,1.44
2024-05-09T05:47:32.909Z,1.44
2024-05-09T05:48:06.332Z,1.44
2024-05-09T05:48:36.543Z,1.44
2024-05-09T05:49:09.652Z,1.77
2024-05-09T05:49:40.736Z,1.77
2024-05-09T05:50:20.978Z,1.77
2024-05-09T05:50:44.710Z,1.77
2024-05-09T05:51:17.722Z,1.77
2024-05-09T05:51:48.617Z,1.77
2024-05-09T05:52:21.726Z,1.77
2024-05-09T05:52:52.672Z,1.77
2024-05-09T05:53:25.475Z,1.77
2024-05-09T05:53:56.526Z,1.77
2024-05-09T05:54:29.638Z,1.77
2024-05-09T05:55:00.970Z,1.77
2024-05-09T05:55:33.409Z,1.77
2024-05-09T05:56:04.592Z,1.77
2024-05-09T05:56:37.779Z,2.09
2024-05-09T05:57:08.662Z,2.09
2024-05-09T05:57:41.407Z,2.09
2024-05-09T05:58:12.718Z,2.09
2024-05-09T05:58:45.648Z,2.09
2024-05-09T05:59:16.824Z,2.09
2024-05-09T05:59:49.375Z,2.09
2024-05-09T06:00:53.983Z,2.09
2024-05-09T06:01:24.469Z,2.09
2024-05-09T06:01:57.417Z,2.09
2024-05-09T06:02:28.778Z,2.09
2024-05-09T06:03:02.010Z,2.57
2024-05-09T06:03:32.838Z,2.89
2024-05-09T06:04:05.746Z,2.89
2024-05-09T06:04:36.681Z,2.89
2024-05-09T06:05:09.971Z,2.89
2024-05-09T06:05:41.220Z,2.57
2024-05-09T06:06:13.713Z,2.57
2024-05-09T06:06:44.693Z,2.57
2024-05-09T06:07:17.428Z,2.57
2024-05-09T06:07:48.651Z,2.57
2024-05-09T06:08:21.691Z,2.57
2024-05-09T06:08:52.701Z,2.57
2024-05-09T06:09:25.332Z,2.89
2024-05-09T06:09:56.763Z,2.89
2024-05-09T06:10:37.594Z,2.89
2024-05-09T06:11:00.682Z,2.89
2024-05-09T06:11:33.713Z,2.89
2024-05-09T06:12:04.840Z,2.89
2024-05-09T06:12:37.547Z,2.89
2024-05-09T06:13:08.638Z,2.89
2024-05-09T06:13:41.445Z,2.89
2024-05-09T06:14:12.639Z,2.89
2024-05-09T06:14:45.448Z,2.89
2024-05-09T06:15:17.950Z,2.89
2024-05-09T06:15:49.498Z,2.89
2024-05-09T06:16:20.666Z,2.89
2024-05-09T06:16:56.914Z,3.21
2024-05-09T06:17:24.808Z,3.21
2024-05-09T06:17:57.585Z,3.54
2024-05-09T06:18:28.868Z,3.21
2024-05-09T06:19:01.556Z,3.54
2024-05-09T06:19:32.797Z,3.54
2024-05-09T06:20:13.262Z,3.54
2024-05-09T06:20:38.346Z,3.54
2024-05-09T06:21:09.594Z,3.21
2024-05-09T06:21:40.736Z,3.54
2024-05-09T06:22:13.576Z,3.54
2024-05-09T06:22:44.706Z,3.54
2024-05-09T06:23:17.546Z,3.54
2024-05-09T06:23:48.745Z,3.21
2024-05-09T06:24:21.468Z,3.21
2024-05-09T06:24:52.648Z,2.89
2024-05-09T06:25:26.053Z,2.89
2024-05-09T06:25:56.733Z,2.89
2024-05-09T06:26:29.384Z,2.89
2024-05-09T06:27:00.762Z,2.89
2024-05-09T06:27:33.544Z,2.89
2024-05-09T06:28:04.994Z,2.89
2024-05-09T06:28:37.367Z,2.09
2024-05-09T06:29:08.704Z,2.09
2024-05-09T06:29:41.442Z,2.09
2024-05-09T06:30:24.932Z,2.09
2024-05-09T06:30:45.626Z,2.09
2024-05-09T06:31:16.812Z,2.09
2024-05-09T06:31:49.340Z,2.09
2024-05-09T06:32:20.881Z,2.09
2024-05-09T06:32:53.618Z,2.09
2024-05-09T06:33:24.827Z,2.09
2024-05-09T06:33:57.449Z,1.44
2024-05-09T06:34:28.867Z,1.77
2024-05-09T06:35:02.147Z,1.77
2024-05-09T06:35:32.901Z,1.77
2024-05-09T06:36:05.409Z,1.77
2024-05-09T06:36:36.605Z,1.77
2024-05-09T06:37:09.530Z,1.77
2024-05-09T06:37:41.713Z,2.09
2024-05-09T06:38:13.677Z,2.09
2024-05-09T06:38:44.591Z,2.57
2024-05-09T06:39:17.554Z,2.57
2024-05-09T06:39:48.693Z,2.57
2024-05-09T06:40:25.818Z,2.57
2024-05-09T06:40:52.670Z,2.57
2024-05-09T06:41:25.449Z,2.57
2024-05-09T06:41:56.906Z,2.57
2024-05-09T06:42:29.380Z,2.09
2024-05-09T06:43:00.695Z,2.09
2024-05-09T06:43:33.571Z,2.09
2024-05-09T06:44:04.594Z,2.09
2024-05-09T06:44:37.756Z,2.09
2024-05-09T06:45:10.159Z,2.09
2024-05-09T06:45:41.528Z,2.09
2024-05-09T06:46:12.645Z,2.09
2024-05-09T06:46:45.764Z,2.09
2024-05-09T06:47:16.918Z,2.09
2024-05-09T06:47:49.667Z,2.09
2024-05-09T06:48:21.421Z,2.09
2024-05-09T06:48:53.940Z,2.09
2024-05-09T06:49:24.730Z,2.09
2024-05-09T06:49:57.264Z,2.09
2024-05-09T06:50:35.747Z,1.77
2024-05-09T06:51:01.433Z,1.77
2024-05-09T06:51:32.679Z,1.77
2024-05-09T06:52:05.683Z,1.77
2024-05-09T06:52:36.801Z,1.77
2024-05-09T06:53:09.832Z,1.77
2024-05-09T06:53:40.810Z,1.77
2024-05-09T06:54:14.418Z,1.77
2024-05-09T06:54:44.663Z,1.77
2024-05-09T06:55:18.045Z,1.77
2024-05-09T06:55:48.794Z,1.77
2024-05-09T06:56:21.707Z,1.77
2024-05-09T06:56:52.605Z,1.77
2024-05-09T06:57:25.696Z,1.77
2024-05-09T06:57:56.972Z,1.77
2024-05-09T06:58:29.520Z,1.77
2024-05-09T06:59:00.774Z,1.44
2024-05-09T06:59:33.481Z,1.44
2024-05-09T07:00:08.283Z,1.77
2024-05-09T07:00:40.167Z,1.77
2024-05-09T07:01:08.696Z,1.77
2024-05-09T07:01:41.806Z,1.77
2024-05-09T07:02:12.669Z,1.77
2024-05-09T07:02:45.508Z,1.77
2024-05-09T07:03:18.431Z,1.77
2024-05-09T07:03:49.562Z,1.44
2024-05-09T07:04:20.822Z,1.44
2024-05-09T07:04:54.039Z,1.44
2024-05-09T07:05:25.199Z,1.12
2024-05-09T07:05:57.145Z,1.12
2024-05-09T07:06:28.624Z,.64
2024-05-09T07:07:01.432Z,.32
2024-05-09T07:07:32.630Z,.64
2024-05-09T07:08:05.392Z,.64
2024-05-09T07:08:36.791Z,.64
2024-05-09T07:09:10.123Z,.64
2024-05-09T07:09:40.713Z,.64
2024-05-09T07:10:21.679Z,.64
2024-05-09T07:10:44.944Z,.64
2024-05-09T07:11:17.552Z,1.12
2024-05-09T07:11:48.591Z,1.12
2024-05-09T07:12:21.976Z,.64
2024-05-09T07:12:52.762Z,.64
2024-05-09T07:13:25.395Z,.32
2024-05-09T07:13:56.737Z,.64
2024-05-09T07:14:29.862Z,.64
2024-05-09T07:15:02.034Z,.64
2024-05-09T07:15:16.928Z,.64
2024-05-09T07:15:49.152Z,.64
2024-05-09T07:16:20.726Z,1.44
2024-05-09T07:16:52.808Z,1.44
2024-05-09T07:17:24.949Z,1.44
2024-05-09T07:17:57.725Z,1.44
2024-05-09T07:18:28.998Z,1.44
2024-05-09T07:19:01.621Z,1.44
2024-05-09T07:19:32.856Z,1.44
2024-05-09T07:20:36.776Z,1.44
2024-05-09T07:21:09.412Z,1.44
2024-05-09T07:21:40.629Z,1.44
2024-05-09T07:22:13.433Z,1.44
2024-05-09T07:22:44.577Z,1.44
2024-05-09T07:23:17.567Z,1.44
2024-05-09T07:23:48.956Z,1.44
2024-05-09T07:24:21.500Z,1.44
2024-05-09T07:24:52.659Z,1.44
2024-05-09T07:25:25.731Z,1.44
2024-05-09T07:25:56.805Z,1.44
2024-05-09T07:26:29.588Z,1.44
2024-05-09T07:27:00.801Z,1.44
2024-05-09T07:27:33.645Z,1.44
2024-05-09T07:28:04.648Z,1.44
2024-05-09T07:28:37.717Z,1.77
2024-05-09T07:29:08.766Z,1.77
2024-05-09T07:29:41.653Z,1.44
2024-05-09T07:30:20.074Z,1.44
2024-05-09T07:30:46.002Z,1.44
2024-05-09T07:31:16.519Z,1.44
2024-05-09T07:31:49.519Z,1.77
2024-05-09T07:32:20.915Z,1.77
2024-05-09T07:32:53.927Z,1.77
2024-05-09T07:33:25.061Z,1.77